Time;durP1;ratioP1;P1;durP2;ratioP2;P2;SDS_P1;SDS_P2;PMS_P1;PMS_P2;Temp;Humidity;BMP_temperature;BMP_pressure;BME280_temperature;BME280_humidity;BME280_pressure;Samples;Min_cycle;Max_cycle;Signal;HPM_P1;HPM_P2
2022/09/12 00:01:59;;;;;;;44.22;13.45;;;;;;;14.34;80.30;100484.38;5055367;28;20064;-64
2022/09/12 00:04:27;;;;;;;18.58;11.98;;;;;;;14.34;80.61;100490.81;5055075;28;20520;-64
2022/09/12 00:06:56;;;;;;;21.05;13.75;;;;;;;14.38;81.29;100488.13;5054954;28;20056;-64
2022/09/12 00:09:23;;;;;;;13.40;11.30;;;;;;;14.39;80.67;100478.59;5055066;28;20060;-64
2022/09/12 00:11:50;;;;;;;15.60;11.35;;;;;;;14.41;80.45;100484.66;5054976;28;20045;-64
2022/09/12 00:14:19;;;;;;;15.93;10.38;;;;;;;14.41;80.40;100484.66;5054713;28;20049;-64
2022/09/12 00:16:46;;;;;;;12.65;11.25;;;;;;;14.45;79.80;100480.03;5055323;28;20060;-64
2022/09/12 00:19:14;;;;;;;12.35;11.02;;;;;;;14.46;80.08;100478.03;5055110;28;20052;-64
2022/09/12 00:21:42;;;;;;;14.73;11.13;;;;;;;14.48;79.99;100481.31;5054972;28;20057;-64
2022/09/12 00:24:11;;;;;;;32.08;11.85;;;;;;;14.51;79.35;100484.28;5055257;28;20060;-64
2022/09/12 00:26:38;;;;;;;21.88;11.32;;;;;;;14.55;80.52;100481.59;5054811;28;20386;-64
2022/09/12 00:29:05;;;;;;;21.33;11.45;;;;;;;14.57;80.87;100479.28;5054486;28;20505;-64
2022/09/12 00:31:33;;;;;;;14.15;10.90;;;;;;;14.53;80.56;100470.72;5054361;28;20070;-64
2022/09/12 00:34:01;;;;;;;23.13;12.30;;;;;;;14.54;80.61;100475.16;5054506;28;20064;-64
2022/09/12 00:36:31;;;;;;;20.50;12.35;;;;;;;14.52;80.05;100471.06;5054458;28;20401;-64
2022/09/12 00:38:58;;;;;;;20.48;11.32;;;;;;;14.52;79.92;100474.69;5054624;28;20080;-64
2022/09/12 00:41:31;;;;;;;15.77;11.23;;;;;;;14.52;78.97;100466.28;5054371;28;20064;-64
2022/09/12 00:43:59;;;;;;;16.20;11.32;;;;;;;14.51;79.24;100458.19;5053772;28;20049;-65
2022/09/12 00:46:33;;;;;;;22.65;12.27;;;;;;;14.48;78.37;100465.31;5054397;28;20441;-64
2022/09/12 00:49:03;;;;;;;13.35;9.80;;;;;;;14.48;78.88;100458.91;5054655;28;20059;-64
2022/09/12 00:51:34;;;;;;;16.80;11.27;;;;;;;14.46;78.62;100453.63;5054416;28;20053;-64
2022/09/12 00:54:09;;;;;;;11.80;9.73;;;;;;;14.44;78.56;100444.72;5054325;28;20048;-64
2022/09/12 00:56:41;;;;;;;14.38;9.93;;;;;;;14.42;77.36;100433.03;5054644;28;20484;-64
2022/09/12 00:59:15;;;;;;;13.98;10.43;;;;;;;14.40;77.03;100429.75;5054089;28;20056;-65
2022/09/12 01:01:44;;;;;;;12.90;10.13;;;;;;;14.39;76.95;100428.13;5054034;28;20064;-64
2022/09/12 01:04:13;;;;;;;12.25;10.48;;;;;;;14.38;77.64;100423.69;5053952;28;20095;-64
2022/09/12 01:06:43;;;;;;;16.88;12.80;;;;;;;14.33;78.05;100430.31;5053918;28;20064;-64
2022/09/12 01:09:14;;;;;;;23.27;12.70;;;;;;;14.31;77.99;100421.44;5053841;28;20053;-64
2022/09/12 01:11:45;;;;;;;16.98;12.45;;;;;;;14.30;77.92;100417.00;5053365;28;20076;-64
2022/09/12 01:14:13;;;;;;;14.90;12.05;;;;;;;14.29;78.01;100429.34;5053495;28;20061;-64
2022/09/12 01:16:41;;;;;;;15.93;11.77;;;;;;;14.25;77.01;100427.59;5053869;28;20513;-64
2022/09/12 01:19:27;;;;;;;26.55;11.02;;;;;;;14.25;77.16;100435.97;5053854;28;20063;-64
2022/09/12 01:22:11;;;;;;;17.02;11.30;;;;;;;14.18;78.32;100426.13;5053592;28;20064;-63
2022/09/12 01:25:03;;;;;;;17.60;10.80;;;;;;;14.15;78.83;100431.59;5053441;28;20057;-63
2022/09/12 01:27:50;;;;;;;14.07;10.35;;;;;;;14.14;79.12;100432.75;5053668;28;20052;-64
2022/09/12 01:30:38;;;;;;;13.23;10.25;;;;;;;14.14;79.55;100438.38;5054077;28;20061;-64
2022/09/12 01:33:36;;;;;;;37.53;10.48;;;;;;;14.10;79.33;100431.81;5053247;28;20063;-64
2022/09/12 01:36:33;;;;;;;16.95;10.15;;;;;;;14.06;79.80;100433.63;5053711;28;20052;-64
2022/09/12 01:39:04;;;;;;;20.02;10.60;;;;;;;14.05;79.14;100430.03;5053520;28;20049;-64
2022/09/12 01:41:42;;;;;;;91.13;15.05;;;;;;;14.06;79.35;100430.84;5053224;28;20049;-64
2022/09/12 01:44:16;;;;;;;19.92;9.95;;;;;;;14.08;79.31;100423.72;5053475;28;20072;-64
2022/09/12 01:46:52;;;;;;;16.52;10.63;;;;;;;14.06;79.78;100420.44;5053271;28;20067;-64
2022/09/12 01:49:24;;;;;;;29.23;10.88;;;;;;;14.02;78.78;100420.28;5053139;28;20052;-64
2022/09/12 01:51:59;;;;;;;15.63;10.15;;;;;;;14.05;78.84;100415.19;5053130;28;20064;-64
2022/09/12 01:54:30;;;;;;;28.23;10.15;;;;;;;14.07;79.11;100422.09;5053309;28;20048;-65
2022/09/12 01:57:03;;;;;;;42.50;11.68;;;;;;;14.05;78.86;100416.03;5052817;28;20524;-64
2022/09/12 01:59:34;;;;;;;14.95;9.38;;;;;;;14.02;78.55;100413.88;5053509;28;20045;-64
2022/09/12 02:02:08;;;;;;;31.17;10.40;;;;;;;13.97;78.44;100414.09;5053010;28;20055;-64
2022/09/12 02:04:41;;;;;;;25.13;9.13;;;;;;;14.02;79.00;100411.09;5053428;28;20053;-64
2022/09/12 02:07:13;;;;;;;18.73;8.68;;;;;;;14.04;78.64;100414.38;5053223;28;20489;-63
2022/09/12 02:09:46;;;;;;;14.05;7.70;;;;;;;14.04;78.67;100416.34;5052319;28;20064;-64
2022/09/12 02:12:18;;;;;;;19.85;9.00;;;;;;;14.02;77.50;100411.09;5052344;28;20416;-64
2022/09/12 02:14:50;;;;;;;19.33;9.35;;;;;;;14.01;78.35;100404.66;5051911;28;20057;-64
2022/09/12 02:17:22;;;;;;;11.90;8.60;;;;;;;14.00;77.94;100411.41;5062792;28;20405;-64
2022/09/12 02:19:54;;;;;;;14.18;9.25;;;;;;;14.01;78.24;100409.47;5052333;28;20049;-64
2022/09/12 02:22:25;;;;;;;13.15;8.77;;;;;;;14.00;77.70;100410.59;5051950;28;20049;-63
2022/09/12 02:24:55;;;;;;;18.02;9.77;;;;;;;14.00;78.30;100411.41;5072369;28;20053;-64
2022/09/12 02:27:25;;;;;;;17.80;8.73;;;;;;;13.98;77.74;100405.34;5072257;28;20056;-64
2022/09/12 02:29:53;;;;;;;15.75;9.15;;;;;;;13.93;77.05;100404.72;5072270;28;20492;-64
2022/09/12 02:32:30;;;;;;;9.75;8.60;;;;;;;13.89;77.18;100409.38;5072505;28;20485;-64
2022/09/12 02:35:05;;;;;;;11.15;8.57;;;;;;;13.86;77.47;100407.22;5073540;28;20063;-59
2022/09/12 02:37:45;;;;;;;9.98;8.30;;;;;;;13.84;76.67;100404.78;5066080;28;20045;-59
2022/09/12 02:40:14;;;;;;;9.18;8.25;;;;;;;13.82;77.95;100401.50;5053044;28;20061;-59
2022/09/12 02:42:41;;;;;;;12.40;7.88;;;;;;;13.80;76.77;100401.00;5053084;28;20056;-59
2022/09/12 02:45:11;;;;;;;7.82;7.03;;;;;;;13.78;77.24;100404.16;5052434;28;20064;-59
2022/09/12 02:47:42;;;;;;;;;;;;;;;13.72;76.85;100410.28;5052818;28;20048;-59
2022/09/12 02:50:10;;;;;;;7.47;6.78;;;;;;;13.69;77.42;100406.19;5052184;28;19920;-60
2022/09/12 02:52:38;;;;;;;8.15;7.35;;;;;;;13.68;76.24;100398.94;5052742;28;20056;-59
2022/09/12 02:55:06;;;;;;;7.70;6.50;;;;;;;13.52;76.69;100403.44;5052355;28;20409;-59
2022/09/12 02:57:33;;;;;;;8.27;7.47;;;;;;;13.57;76.89;100397.69;5052334;28;20516;-59
2022/09/12 03:00:02;;;;;;;8.85;7.88;;;;;;;13.58;77.02;100388.91;5052065;28;20053;-59
2022/09/12 03:02:41;;;;;;;8.98;7.53;;;;;;;13.58;77.20;100388.91;5052062;28;20057;-59
2022/09/12 03:05:21;;;;;;;8.85;7.72;;;;;;;13.56;76.45;100390.41;5052274;28;20060;-59
2022/09/12 03:08:07;;;;;;;8.70;7.75;;;;;;;13.54;76.95;100381.53;5051588;28;20060;-59
2022/09/12 03:10:43;;;;;;;8.75;7.28;;;;;;;13.53;76.90;100382.72;5052345;28;20049;-59
2022/09/12 03:13:21;;;;;;;9.65;8.05;;;;;;;13.47;76.49;100384.88;5051923;28;20057;-60
2022/09/12 03:16:02;;;;;;;11.23;8.25;;;;;;;13.50;75.93;100380.56;5052143;28;20064;-59
2022/09/12 03:18:42;;;;;;;18.25;9.73;;;;;;;13.45;76.48;100389.16;5052464;28;20402;-59
2022/09/12 03:21:16;;;;;;;17.20;10.48;;;;;;;13.40;77.27;100381.78;5051292;28;21628;-59
2022/09/12 03:23:55;;;;;;;28.20;12.48;;;;;;;13.38;76.97;100387.72;5051626;28;20508;-59
2022/09/12 03:26:30;;;;;;;14.20;9.30;;;;;;;13.33;76.71;100375.88;5051700;28;20048;-59
2022/09/12 03:29:00;;;;;;;11.27;9.80;;;;;;;13.28;77.47;100378.84;5052791;28;20057;-59
2022/09/12 03:31:27;;;;;;;11.57;9.30;;;;;;;13.25;76.64;100377.53;5055598;28;20052;-59
2022/09/12 03:33:54;;;;;;;11.75;9.63;;;;;;;13.22;77.42;100375.41;5055868;28;20059;-59
2022/09/12 03:36:25;;;;;;;10.38;8.18;;;;;;;13.21;76.92;100365.38;5054750;28;20060;-59
2022/09/12 03:38:53;;;;;;;11.82;7.82;;;;;;;13.18;76.68;100363.25;5055747;28;20049;-59
2022/09/12 03:41:20;;;;;;;10.77;8.57;;;;;;;13.16;76.26;100365.53;5055431;28;20049;-59
2022/09/12 03:43:47;;;;;;;11.30;9.07;;;;;;;13.06;76.36;100365.91;5055625;28;20049;-59
2022/09/12 03:46:15;;;;;;;13.60;9.35;;;;;;;13.03;76.58;100378.59;5055283;28;20052;-58
2022/09/12 03:48:42;;;;;;;10.23;8.05;;;;;;;13.02;76.99;100382.56;5055160;28;20053;-58
2022/09/12 03:51:11;;;;;;;10.35;8.50;;;;;;;12.98;76.50;100374.00;5056231;28;20079;-58
2022/09/12 03:53:39;;;;;;;8.97;7.67;;;;;;;12.97;77.19;100369.53;5055317;28;20057;-58
2022/09/12 03:56:08;;;;;;;8.70;7.78;;;;;;;12.97;76.49;100369.53;5055375;28;20049;-58
2022/09/12 03:58:36;;;;;;;8.80;7.90;;;;;;;12.95;76.68;100371.84;5055252;28;20056;-58
2022/09/12 04:01:10;;;;;;;8.52;7.63;;;;;;;12.89;76.69;100369.56;5055337;28;20057;-58
2022/09/12 04:03:39;;;;;;;10.02;7.97;;;;;;;12.86;77.54;100373.03;5054818;28;20054;-58
2022/09/12 04:06:07;;;;;;;9.32;7.80;;;;;;;12.79;77.09;100371.56;5056822;28;20515;-58
2022/09/12 04:08:35;;;;;;;10.40;7.80;;;;;;;12.81;76.74;100376.84;5054940;28;20584;-58
2022/09/12 04:11:04;;;;;;;7.97;6.93;;;;;;;12.80;76.86;100372.41;5055044;28;20045;-58
2022/09/12 04:13:32;;;;;;;8.60;7.22;;;;;;;12.79;77.00;100367.97;5054845;28;20049;-58
2022/09/12 04:16:00;;;;;;;8.32;7.30;;;;;;;12.76;76.54;100369.44;5054909;28;20060;-58
2022/09/12 04:18:27;;;;;;;10.68;7.57;;;;;;;12.74;76.43;100373.72;5054789;28;20053;-59
2022/09/12 04:20:55;;;;;;;11.23;7.80;;;;;;;12.72;76.78;100370.44;5057481;28;20041;-59
2022/09/12 04:23:22;;;;;;;10.30;7.63;;;;;;;12.69;76.53;100368.31;5075038;28;20499;-58
2022/09/12 04:25:56;;;;;;;13.60;8.68;;;;;;;12.63;76.27;100364.03;5074633;28;20056;-59
2022/09/12 04:28:27;;;;;;;9.43;7.70;;;;;;;12.57;77.24;100367.00;5074923;28;20516;-59
2022/09/12 04:30:55;;;;;;;9.52;6.80;;;;;;;12.61;76.41;100369.97;5074457;28;20432;-60
2022/09/12 04:33:22;;;;;;;10.50;7.57;;;;;;;12.60;76.93;100365.53;5074760;28;20053;-59
2022/09/12 04:35:49;;;;;;;10.50;7.75;;;;;;;12.58;76.33;100368.66;5066144;28;20151;-58
2022/09/12 04:38:16;;;;;;;9.88;7.03;;;;;;;12.57;77.26;100360.59;5054800;28;20504;-59
2022/09/12 04:40:44;;;;;;;11.27;8.23;;;;;;;12.52;77.41;100363.56;5053886;28;20056;-59
2022/09/12 04:43:11;;;;;;;10.93;7.32;;;;;;;12.56;77.65;100368.16;5054511;28;20053;-58
2022/09/12 04:45:40;;;;;;;8.57;7.45;;;;;;;12.61;77.58;100356.00;5054722;28;20052;-59
2022/09/12 04:48:07;;;;;;;8.25;6.55;;;;;;;12.68;76.74;100361.91;5054873;28;20075;-58
2022/09/12 04:50:34;;;;;;;9.50;7.18;;;;;;;12.67;76.15;100354.66;5054863;28;20350;-58
2022/09/12 04:53:02;;;;;;;10.20;8.05;;;;;;;12.72;76.05;100364.84;5054085;28;20245;-58
2022/09/12 04:55:29;;;;;;;8.70;7.20;;;;;;;12.67;76.05;100356.66;5054137;28;20048;-59
2022/09/12 04:57:56;;;;;;;11.45;7.95;;;;;;;12.66;75.93;100360.56;5054074;28;20056;-58
2022/09/12 05:00:23;;;;;;;10.68;7.70;;;;;;;12.64;75.94;100357.28;5054274;28;20405;-58
2022/09/12 05:02:52;;;;;;;7.20;6.35;;;;;;;12.63;77.26;100358.47;5053871;28;20119;-58
2022/09/12 05:05:19;;;;;;;9.02;6.97;;;;;;;12.64;77.13;100351.69;5054470;28;20524;-58
2022/09/12 05:07:46;;;;;;;7.97;6.05;;;;;;;12.63;75.96;100352.88;5053814;28;20052;-58
2022/09/12 05:10:14;;;;;;;10.00;6.97;;;;;;;12.62;76.14;100352.06;5053959;28;20052;-58
2022/09/12 05:12:41;;;;;;;10.45;7.35;;;;;;;12.60;76.27;100359.94;5054050;28;20402;-58
2022/09/12 05:15:10;;;;;;;11.50;7.95;;;;;;;12.53;75.42;100357.63;5053902;28;20052;-58
2022/09/12 05:17:37;;;;;;;9.38;7.03;;;;;;;12.48;76.49;100357.81;5053578;28;20057;-57
2022/09/12 05:20:08;;;;;;;11.05;6.65;;;;;;;12.55;76.31;100360.09;5052548;28;20052;-60
2022/09/12 05:22:35;;;;;;;10.40;7.00;;;;;;;12.57;75.76;100360.59;5053782;28;20493;-59
2022/09/12 05:25:02;;;;;;;11.57;7.40;;;;;;;12.58;76.02;100354.69;5053778;28;20057;-60
2022/09/12 05:27:30;;;;;;;12.30;7.25;;;;;;;12.63;75.45;100353.69;5053737;28;20409;-60
2022/09/12 05:29:57;;;;;;;10.35;7.10;;;;;;;12.65;75.99;100350.56;5053265;28;20048;-60
2022/09/12 05:32:25;;;;;;;9.60;6.97;;;;;;;12.56;76.06;100348.59;5053366;28;20045;-60
2022/09/12 05:34:52;;;;;;;9.25;7.40;;;;;;;12.65;76.24;100342.19;5062406;28;20052;-59
2022/09/12 05:37:21;;;;;;;11.20;7.20;;;;;;;12.73;76.60;100342.16;5073291;28;20409;-59
2022/09/12 05:39:50;;;;;;;8.75;7.25;;;;;;;12.80;76.43;100347.25;5066944;28;20051;-59
2022/09/12 05:42:17;;;;;;;10.40;7.40;;;;;;;12.79;76.38;100342.81;5059741;28;20385;-59
2022/09/12 05:44:44;;;;;;;15.77;9.13;;;;;;;12.84;75.46;100339.84;5064668;28;20389;-59
2022/09/12 05:47:11;;;;;;;19.13;10.93;;;;;;;12.64;77.10;100343.31;5070687;28;20064;-46
2022/09/12 05:49:39;;;;;;;11.57;8.57;;;;;;;12.47;78.58;100335.78;5053388;28;20048;-46
2022/09/12 05:52:06;;;;;;;9.13;7.40;;;;;;;12.78;78.09;100332.78;5055131;28;20052;-46
2022/09/12 05:54:35;;;;;;;9.27;7.43;;;;;;;13.00;77.72;100338.13;5052807;28;20049;-48
2022/09/12 05:57:02;;;;;;;9.23;7.22;;;;;;;13.13;76.61;100338.25;5068584;28;20057;-45
2022/09/12 05:59:29;;;;;;;11.15;7.45;;;;;;;13.26;75.58;100339.19;5059476;28;20410;-44
2022/09/12 06:01:56;;;;;;;6.82;5.57;;;;;;;13.43;75.61;100336.34;5052937;28;20064;-45
2022/09/12 06:04:25;;;;;;;6.68;5.88;;;;;;;13.65;75.11;100343.63;5071000;28;20063;-57
2022/09/12 06:06:52;;;;;;;7.63;6.30;;;;;;;13.75;73.75;100345.19;5056242;28;20061;-58
2022/09/12 06:09:19;;;;;;;6.45;5.30;;;;;;;13.86;74.34;100345.63;5052564;28;20049;-58
2022/09/12 06:11:48;;;;;;;8.13;6.03;;;;;;;13.99;73.17;100339.78;5052720;28;20053;-58
2022/09/12 06:14:17;;;;;;;7.82;6.30;;;;;;;14.13;73.07;100335.88;5052992;28;20079;-58
2022/09/12 06:16:44;;;;;;;9.33;6.77;;;;;;;14.23;72.01;100334.66;5052385;28;20064;-58
2022/09/12 06:19:15;;;;;;;7.47;6.50;;;;;;;14.35;71.43;100337.50;5053422;28;20049;-59
2022/09/12 06:21:42;;;;;;;9.65;5.97;;;;;;;14.48;72.07;100336.38;5060623;28;20063;-58
2022/09/12 06:24:10;;;;;;;7.57;6.20;;;;;;;14.58;71.69;100340.78;5061073;28;20051;-59
2022/09/12 06:26:37;;;;;;;8.70;6.43;;;;;;;14.64;70.91;100336.63;5056671;28;20060;-58
2022/09/12 06:29:06;;;;;;;8.07;6.55;;;;;;;14.76;70.56;100327.41;5065402;28;20056;-59
2022/09/12 06:31:35;;;;;;;7.00;6.30;;;;;;;14.85;70.32;100328.16;5072229;28;20048;-59
2022/09/12 06:34:04;;;;;;;9.00;7.30;;;;;;;14.93;70.52;100335.63;5072338;28;20111;-59
2022/09/12 06:36:33;;;;;;;7.53;6.63;;;;;;;14.99;70.59;100331.44;5066225;28;20055;-59
2022/09/12 06:39:02;;;;;;;8.85;6.65;;;;;;;15.16;70.15;100332.38;5052435;28;20048;-59
2022/09/12 06:41:31;;;;;;;7.95;7.05;;;;;;;15.36;69.99;100325.84;5052052;28;20525;-59
2022/09/12 06:43:58;;;;;;;8.40;7.40;;;;;;;15.48;69.63;100330.66;5058648;28;20519;-58
2022/09/12 06:46:28;;;;;;;9.05;7.32;;;;;;;15.66;69.00;100325.59;5070515;28;20416;-58
2022/09/12 06:48:56;;;;;;;8.27;7.00;;;;;;;15.87;68.66;100335.91;5053650;28;20409;-57
2022/09/12 06:51:23;;;;;;;9.07;7.43;;;;;;;16.09;68.39;100323.34;5064943;28;20053;-59
2022/09/12 06:53:51;;;;;;;7.57;6.80;;;;;;;16.31;68.21;100322.78;5064008;28;20074;-59
2022/09/12 06:56:20;;;;;;;7.55;6.28;;;;;;;16.48;67.95;100329.28;5054532;28;20052;-59
2022/09/12 06:58:48;;;;;;;7.43;6.63;;;;;;;16.57;67.69;100327.16;5056515;28;20056;-58
2022/09/12 07:01:17;;;;;;;11.32;7.32;;;;;;;16.78;67.20;100322.13;5057408;28;20694;-58
2022/09/12 07:03:48;;;;;;;7.63;6.82;;;;;;;17.03;67.09;100311.56;5056873;28;20063;-58
2022/09/12 07:06:17;;;;;;;7.78;6.88;;;;;;;17.28;65.94;100324.63;5071109;28;20056;-58
2022/09/12 07:08:45;;;;;;;6.97;6.28;;;;;;;17.69;65.49;100328.03;5064422;28;20064;-58
2022/09/12 07:11:15;;;;;;;8.45;6.40;;;;;;;18.06;63.93;100328.53;5070501;28;20440;-58
2022/09/12 07:13:45;;;;;;;8.15;6.53;;;;;;;18.65;63.05;100329.34;5054313;28;20064;-58
2022/09/12 07:16:12;;;;;;;6.72;5.78;;;;;;;19.21;61.62;100327.97;5070850;28;20074;-58
2022/09/12 07:18:40;;;;;;;6.80;6.10;;;;;;;19.57;59.54;100326.56;5062384;28;20044;-58
2022/09/12 07:21:12;;;;;;;7.32;6.05;;;;;;;19.89;59.13;100333.94;5070551;28;20409;-58
2022/09/12 07:23:40;;;;;;;8.15;6.00;;;;;;;20.23;57.67;100329.16;5058605;28;20413;-58
2022/09/12 07:26:11;;;;;;;7.55;6.75;;;;;;;20.50;56.92;100331.94;5066982;28;20420;-58
2022/09/12 07:28:38;;;;;;;6.82;6.13;;;;;;;20.95;55.76;100325.16;5067126;28;20063;-59
2022/09/12 07:31:08;;;;;;;6.47;5.70;;;;;;;21.47;54.71;100323.25;5066958;28;20072;-58
2022/09/12 07:33:36;;;;;;;7.10;5.90;;;;;;;22.01;53.36;100328.50;5058971;28;20060;-59
2022/09/12 07:36:05;;;;;;;6.50;5.80;;;;;;;22.42;51.71;100331.16;5064536;28;20061;-59
2022/09/12 07:38:34;;;;;;;6.25;5.65;;;;;;;22.57;51.81;100329.97;5066192;28;20044;-59
2022/09/12 07:41:01;;;;;;;7.95;5.60;;;;;;;22.87;50.49;100331.72;5063151;28;20390;-58
2022/09/12 07:43:29;;;;;;;7.72;5.82;;;;;;;23.17;49.69;100324.88;5068443;28;20381;-58
2022/09/12 07:45:56;;;;;;;6.22;5.63;;;;;;;23.32;49.02;100332.19;5055071;28;20056;-58
2022/09/12 07:48:24;;;;;;;6.65;5.97;;;;;;;23.50;48.50;100330.16;5057468;28;20059;-58
2022/09/12 07:50:58;;;;;;;6.03;5.43;;;;;;;23.62;48.93;100331.81;5054607;28;20428;-59
2022/09/12 07:53:26;;;;;;;6.32;5.53;;;;;;;23.56;48.43;100326.91;5057588;28;20056;-59
2022/09/12 07:55:55;;;;;;;6.82;6.15;;;;;;;23.52;48.63;100329.78;5055465;28;20059;-58
2022/09/12 07:58:23;;;;;;;7.93;6.10;;;;;;;23.38;48.58;100324.88;5055266;28;20049;-59
2022/09/12 08:00:51;;;;;;;10.25;7.30;;;;;;;23.26;49.37;100317.56;5055626;28;20079;-58
2022/09/12 08:03:18;;;;;;;13.20;7.30;;;;;;;23.09;49.79;100318.38;5071838;28;20059;-58
2022/09/12 08:05:45;;;;;;;9.38;7.20;;;;;;;22.96;50.54;100320.75;5055497;28;20064;-59
2022/09/12 08:08:13;;;;;;;11.88;7.57;;;;;;;22.82;51.19;100323.56;5055311;28;20048;-58
2022/09/12 08:10:40;;;;;;;6.85;6.15;;;;;;;22.76;51.04;100322.34;5071283;28;20441;-58
2022/09/12 08:13:09;;;;;;;8.20;6.70;;;;;;;22.62;52.03;100320.28;5072381;28;20060;-59
2022/09/12 08:15:36;;;;;;;7.72;5.72;;;;;;;22.52;52.39;100319.03;5068786;28;20056;-58
2022/09/12 08:18:03;;;;;;;9.15;7.13;;;;;;;22.39;52.70;100321.41;5061537;28;20053;-58
2022/09/12 08:20:31;;;;;;;7.45;6.03;;;;;;;22.35;53.40;100320.56;5065648;28;20124;-58
2022/09/12 08:22:59;;;;;;;7.85;6.63;;;;;;;22.42;53.18;100325.47;5074475;28;20056;-58
2022/09/12 08:25:27;;;;;;;7.90;6.10;;;;;;;22.41;53.37;100323.84;5063713;28;20119;-58
2022/09/12 08:27:54;;;;;;;6.60;5.50;;;;;;;22.41;54.00;100323.84;5057237;28;20063;-58
2022/09/12 08:30:23;;;;;;;13.68;7.10;;;;;;;22.43;53.82;100325.06;5060205;28;20591;-58
2022/09/12 08:32:50;;;;;;;8.40;6.20;;;;;;;22.47;54.07;100320.22;5054069;28;20060;-58
2022/09/12 08:35:17;;;;;;;10.27;5.72;;;;;;;22.48;54.66;100315.34;5061216;28;20044;-58
2022/09/12 08:37:45;;;;;;;8.88;6.18;;;;;;;22.67;53.92;100325.56;5062022;28;20052;-58
2022/09/12 08:40:17;;;;;;;8.40;6.15;;;;;;;22.77;54.58;100315.44;5057826;28;20054;-59
2022/09/12 08:42:57;;;;;;;8.23;6.22;;;;;;;23.15;53.15;100311.06;5056980;28;20064;-58
2022/09/12 08:45:34;;;;;;;7.22;5.85;;;;;;;23.66;51.92;100309.03;5059056;28;20045;-58
2022/09/12 08:48:04;;;;;;;8.98;6.40;;;;;;;24.16;51.66;100320.34;5057836;28;20477;-58
2022/09/12 08:50:32;;;;;;;8.25;6.40;;;;;;;24.66;50.01;100311.59;5059531;28;20409;-59
2022/09/12 08:53:02;;;;;;;10.13;6.47;;;;;;;25.08;48.92;100312.56;5062599;28;20053;-58
2022/09/12 08:55:33;;;;;;;6.97;5.85;;;;;;;25.35;48.37;100317.69;5065598;28;20048;-58
2022/09/12 08:58:05;;;;;;;7.43;5.63;;;;;;;25.72;47.71;100304.72;5063429;28;20053;-59
2022/09/12 09:00:42;;;;;;;6.82;5.78;;;;;;;25.99;47.36;100304.88;5062705;28;20055;-58
2022/09/12 09:03:48;;;;;;;6.63;5.88;;;;;;;26.18;46.55;100294.84;5058918;28;20053;-59
2022/09/12 09:06:28;;;;;;;6.47;5.38;;;;;;;26.46;45.55;100292.91;5059274;28;20124;-59
2022/09/12 09:09:05;;;;;;;5.80;5.03;;;;;;;26.97;45.21;100299.53;5072073;28;20404;-59
2022/09/12 09:11:44;;;;;;;6.00;5.32;;;;;;;27.68;43.57;100293.91;5062350;28;20048;-58
2022/09/12 09:17:13;;;;;;;6.82;4.93;;;;;;;28.63;42.37;100280.97;5071102;28;19939;-58
2022/09/12 09:19:47;;;;;;;6.32;5.43;;;;;;;28.95;41.61;100285.16;5062938;28;20418;-58
2022/09/12 09:22:21;;;;;;;6.28;5.00;;;;;;;29.06;41.18;100291.44;5057359;28;20055;-58
2022/09/12 09:24:53;;;;;;;5.00;4.50;;;;;;;29.47;40.09;100286.38;5055181;28;20057;-59
2022/09/12 09:27:29;;;;;;;6.60;5.00;;;;;;;30.03;38.10;100277.50;5064270;28;20056;-59
2022/09/12 09:29:56;;;;;;;5.65;4.97;;;;;;;30.33;38.42;100281.97;5066284;28;20056;-58
2022/09/12 09:32:31;;;;;;;5.07;4.28;;;;;;;30.64;37.42;100281.47;5058399;28;20508;-59
2022/09/12 09:34:58;;;;;;;4.95;4.43;;;;;;;30.72;37.75;100285.72;5052640;28;20057;-59
2022/09/12 09:37:38;;;;;;;5.18;4.65;;;;;;;30.88;37.33;100276.19;5067677;28;20055;-59
2022/09/12 09:40:21;;;;;;;6.63;4.88;;;;;;;30.87;37.24;100273.78;5055748;28;20053;-59
2022/09/12 09:42:56;;;;;;;5.22;4.10;;;;;;;31.64;35.92;100277.38;5058788;28;20057;-56
2022/09/12 09:45:27;;;;;;;6.25;4.35;;;;;;;32.29;34.19;100280.81;5068843;28;20060;-59
2022/09/12 09:48:01;;;;;;;7.28;4.70;;;;;;;32.86;34.11;100277.78;5057787;28;20056;-58
2022/09/12 09:50:29;;;;;;;5.10;4.10;;;;;;;33.15;32.60;100275.38;5060449;28;20049;-56
2022/09/12 09:53:00;;;;;;;5.95;4.13;;;;;;;33.66;31.85;100276.16;5070199;28;20049;-56
2022/09/12 09:55:32;;;;;;;6.63;4.43;;;;;;;33.77;31.77;100270.72;5070431;28;20059;-58
2022/09/12 09:57:59;;;;;;;4.70;3.60;;;;;;;34.07;30.66;100259.47;5058384;28;20052;-56
2022/09/12 10:00:30;;;;;;;4.35;3.72;;;;;;;34.26;29.45;100260.28;5059459;28;20063;-57
2022/09/12 10:03:25;;;;;;;3.35;3.03;;;;;;;32.06;31.56;100265.59;5054332;28;20059;-57
2022/09/12 10:05:55;;;;;;;3.63;2.90;;;;;;;32.25;31.45;100266.53;5060068;28;20056;-59
2022/09/12 10:08:26;;;;;;;3.55;3.03;;;;;;;31.91;31.76;100253.78;5059305;28;20040;-58
2022/09/12 10:10:58;;;;;;;3.53;3.03;;;;;;;31.55;32.21;100257.94;5071904;28;20049;-59
2022/09/12 10:13:33;;;;;;;3.50;3.13;;;;;;;31.25;32.25;100264.34;5072333;28;20048;-59
2022/09/12 10:16:04;;;;;;;4.60;2.90;;;;;;;30.43;33.74;100248.44;5056571;28;20055;-60
2022/09/12 10:18:39;;;;;;;3.85;3.00;;;;;;;30.75;33.06;100241.66;5062378;28;20148;-58
2022/09/12 10:21:24;;;;;;;3.90;3.50;;;;;;;31.04;33.04;100246.53;5051771;28;20049;-58
2022/09/12 10:23:59;;;;;;;3.58;3.28;;;;;;;32.63;32.35;100235.88;5060183;28;20056;-58
2022/09/12 10:26:31;;;;;;;3.58;3.25;;;;;;;34.34;29.54;100233.41;5058258;28;20490;-58
2022/09/12 10:29:06;;;;;;;4.80;3.33;;;;;;;35.63;26.67;100231.19;5057132;28;20052;-59
2022/09/12 10:31:42;;;;;;;4.00;2.95;;;;;;;35.67;26.34;100238.41;5057092;28;20733;-59
2022/09/12 10:34:29;;;;;;;3.45;2.80;;;;;;;35.74;27.34;100237.22;5057215;28;20052;-58
2022/09/12 10:37:02;;;;;;;3.10;2.60;;;;;;;36.04;26.76;100225.72;5071867;28;20412;-58
2022/09/12 10:39:31;;;;;;;3.92;2.28;;;;;;;35.92;26.31;100227.59;5071928;28;20059;-58
2022/09/12 10:41:58;;;;;;;3.28;2.85;;;;;;;35.35;26.55;100229.31;5061385;28;20049;-58
2022/09/12 10:44:28;;;;;;;3.33;2.60;;;;;;;35.80;26.11;100225.75;5058583;28;20053;-58
2022/09/12 10:46:55;;;;;;;2.67;2.42;;;;;;;34.80;26.82;100223.81;5065319;28;20053;-58
2022/09/12 10:49:27;;;;;;;3.45;2.88;;;;;;;35.91;25.33;100229.69;5053427;28;20052;-58
2022/09/12 10:52:16;;;;;;;2.90;2.60;;;;;;;36.15;25.47;100231.75;5051172;28;20049;-58
2022/09/12 10:54:45;;;;;;;3.40;2.65;;;;;;;35.93;25.50;100226.28;5058170;28;20490;-59
2022/09/12 10:57:37;;;;;;;3.10;2.80;;;;;;;37.46;24.34;100212.19;5068309;28;20076;-57
2022/09/12 11:00:14;;;;;;;3.60;3.03;;;;;;;38.20;22.99;100208.03;5059380;28;20056;-58
2022/09/12 11:02:51;;;;;;;5.70;3.30;;;;;;;38.63;22.15;100211.09;5072031;28;20045;-58
2022/09/12 11:05:36;;;;;;;4.63;2.97;;;;;;;37.66;23.42;100206.38;5071549;28;20055;-58
2022/09/12 11:08:14;;;;;;;4.15;2.90;;;;;;;37.84;23.89;100207.38;5058438;28;20373;-58
2022/09/12 11:10:55;;;;;;;4.60;3.33;;;;;;;37.89;22.78;100204.53;5065204;28;20053;-58
2022/09/12 11:13:39;;;;;;;3.03;2.72;;;;;;;38.03;22.78;100193.28;5056571;28;20041;-58
2022/09/12 11:16:18;;;;;;;4.53;2.20;;;;;;;39.17;21.89;100194.53;5060241;28;20053;-58
2022/09/12 11:19:03;;;;;;;3.38;2.70;;;;;;;38.09;21.43;100185.44;5051176;28;20389;-58
2022/09/12 11:21:47;;;;;;;3.20;2.10;;;;;;;38.33;22.39;100193.88;5057729;28;20056;-58
2022/09/12 11:24:55;;;;;;;4.10;2.83;;;;;;;38.78;21.45;100176.78;5051179;28;20052;-58
2022/09/12 11:27:39;;;;;;;3.30;2.53;;;;;;;39.92;20.31;100182.66;4994040;28;20189;-57
2022/09/12 11:30:10;;;;;;;3.00;2.70;;;;;;;40.32;20.34;100171.03;5064861;28;20424;-58
2022/09/12 11:32:51;;;;;;;2.63;2.42;;;;;;;40.11;19.59;100177.09;5054062;28;20409;-58
2022/09/12 11:35:24;;;;;;;3.58;3.00;;;;;;;39.86;20.66;100169.34;5069528;28;20052;-59
2022/09/12 11:38:33;;;;;;;3.30;2.58;;;;;;;39.41;20.04;100175.06;5053118;28;20412;-58
2022/09/12 11:41:05;;;;;;;3.15;2.80;;;;;;;37.75;21.65;100164.72;5046385;28;20068;-58
2022/09/12 11:43:38;;;;;;;3.08;2.78;;;;;;;37.80;21.53;100169.81;5066177;28;20044;-58
2022/09/12 11:46:14;;;;;;;3.10;2.83;;;;;;;38.29;20.55;100156.28;5065749;28;20060;-59